Monday, October 16, 2017, 6:08 PM EDT
Back to Local

KOKV, Winchester Regional

Location: Winchester, VA, United States Lat: 39.15
Local Time: 6:08 PM EDT (22:08 GMT) Lon: -78.15
Time Zone: US/Eastern Elev: 728 ft

Show me the last for .
Show Coded

Time T Td Feel RH Dir Speed Gust Alt SLP Vis Weather Sky Remarks
2017-10-16 17:35 57 32 - 38 320° 14 24 30.15 - 10 CLR None
2017-10-16 17:15 59 34 - 38 320° 15 - 30.15 - 10 CLR None
2017-10-16 16:55 59 32 - 35 320° 17 25 30.15 - 10 CLR None
2017-10-16 16:35 59 34 - 38 310° 17 22 30.15 - 10 CLR None
2017-10-16 16:15 61 34 - 36 310° 18 25 30.15 - 10 CLR None
2017-10-16 15:55 61 34 - 36 300° 18 24 30.14 - 10 CLR None
2017-10-16 15:35 59 34 - 38 310° 17 25 30.13 - 10 CLR None
2017-10-16 15:15 61 34 - 36 300° 21 25 30.13 - 10 CLR None
2017-10-16 14:55 61 34 - 36 310° 17 25 30.13 - 10 CLR None
2017-10-16 14:35 61 36 - 38 310° 18 28 30.13 - 10 CLR None
2017-10-16 14:15 61 36 - 38 310° 22 26 30.12 - 10 CLR None
2017-10-16 13:55 61 36 - 38 320° 17 24 30.12 - 10 SCT049 None
2017-10-16 13:35 59 37 - 44 310° 18 26 30.13 - 10 SCT049 None
2017-10-16 13:15 59 37 - 44 320° 12 21 30.14 - 10 SCT049 None
2017-10-16 12:55 57 39 - 50 300° 14 24 30.15 - 10 CLR None
2017-10-16 12:35 57 39 - 50 310° 17 25 30.15 - 10 CLR None
2017-10-16 12:15 55 39 - 54 310° 17 25 30.15 - 10 CLR None
2017-10-16 11:55 55 39 - 54 300° 22 26 30.14 - 10 CLR None
2017-10-16 11:35 55 39 - 54 310° 23 33 30.14 - 10 CLR None
2017-10-16 11:15 55 39 - 54 300° 23 31 30.13 - 10 CLR None
2017-10-16 10:55 55 41 - 58 320° 18 29 30.12 - 10 CLR None
2017-10-16 10:35 54 41 - 62 330° 13 21 30.13 - 10 CLR None
2017-10-16 10:15 54 43 - 66 320° 8 - 30.12 - 10 SCT055 None
2017-10-16 09:55 54 43 - 66 320° 12 - 30.13 - 10 OVC055 None
2017-10-16 09:35 54 43 - 66 330° 10 21 30.12 - 10 OVC055 None
2017-10-16 09:15 54 43 - 66 320° 10 20 30.12 - 10 OVC055 None
2017-10-16 08:55 54 43 - 66 320° 14 20 30.10 - 10 OVC049 None
2017-10-16 08:35 54 43 - 66 330° 10 18 30.09 - 10 SCT038 OVC049 None
2017-10-16 08:15 55 45 - 66 320° 15 22 30.07 - 10 SCT032 OVC039 None
2017-10-16 07:55 55 46 - 71 310° 9 - 30.07 - 10 BKN046 None
2017-10-16 07:35 55 46 - 71 310° 12 - 30.05 - 10 CLR None
2017-10-16 07:15 55 46 - 71 310° 12 - 30.04 - 10 SCT050 None
2017-10-16 06:55 55 46 - 71 320° 9 - 30.03 - 10 SCT050 None
2017-10-16 06:35 54 46 - 76 300° 9 - 30.05 - 10 CLR None
2017-10-16 06:15 55 46 - 71 300° 10 16 30.04 - 10 CLR None
2017-10-16 05:55 55 46 - 71 310° 14 17 30.03 - 10 CLR None
2017-10-16 05:35 55 48 - 76 310° 10 - 30.01 - 10 CLR None
2017-10-16 05:15 57 48 - 71 300° 12 17 30.00 - 10 SCT110 None
2017-10-16 04:55 57 48 - 71 300° 8 - 30.00 - 10 SCT095 SCT120 None
2017-10-16 04:35 59 48 - 67 340° 7 16 29.97 - 10 SCT090 SCT120 None
2017-10-16 04:15 59 50 - 72 310° 12 17 30.00 - 10 CLR None
2017-10-16 03:55 59 50 - 72 300° 13 17 30.00 - 10 BKN120 None
2017-10-16 03:35 59 50 - 72 310° 14 18 30.00 - 10 OVC120 None
2017-10-16 03:15 59 50 - 72 300° 13 - 29.99 - 10 OVC110 None
2017-10-16 02:55 59 52 - 77 300° 12 18 29.98 - 10 OVC110 None
2017-10-16 02:35 59 54 - 82 290° 10 - 29.98 - 10 -RA SCT085 BKN120 None
2017-10-16 02:15 61 55 - 82 320° 12 - 29.98 - 10 DZ SCT044 BKN085 OVC120 None
2017-10-16 01:55 61 59 - 93 320° 6 - 29.98 - 10 DZ SCT040 BKN048 OVC120 1-hr Precip Total: 0.07"
2017-10-16 01:35 61 59 - 93 - Calm - 29.97 - 7 -RA SCT029 BKN040 OVC048 1-hr Precip Total: 0.06"
2017-10-16 01:15 63 59 - 88 310° 9 - 29.97 - 7 RA SCT018 BKN027 OVC040 1-hr Precip Total: 0.03"
2017-10-16 00:55 63 59 - 88 320° 6 - 29.96 - 10 -RA SCT017 SCT025 OVC040 None
2017-10-16 00:35 63 61 - 93 310° 10 - 29.95 - 10 SCT010 BKN032 OVC043 None
2017-10-16 00:15 64 63 - 93 280° 12 - 29.95 - 7 DZ SCT010 BKN020 OVC060 None
2017-10-15 23:55 64 63 - 93 310° 7 - 29.94 - 10 SCT027 SCT032 OVC060 None
2017-10-15 23:30 68 61 - 77 290° 8 - 29.92 - 7 RA BKN050 OVC060 None
2017-10-15 23:15 70 61 - 73 290° 14 - 29.92 - 10 OVC050 None
2017-10-15 22:55 72 59 76 64 300° 20 25 29.91 - 10 OVC050 None
2017-10-15 22:35 72 59 76 64 260° 7 - 29.88 - 10 OVC060 None
2017-10-15 22:15 72 59 76 64 270° 7 - 29.86 - 10 BKN070 OVC090 None
2017-10-15 21:55 70 61 - 73 200° 5 - 29.85 - 10 SCT070 OVC100 None
2017-10-15 21:35 70 61 - 73 190° 5 - 29.85 - 10 OVC100 None
2017-10-15 21:15 68 63 - 82 160° 5 - 29.85 - 10 BKN100 None
2017-10-15 21:00 70 63 - 77 - Calm - 29.85 - 10 SCT080 OVC090 None
2017-10-15 20:35 70 63 - 77 190° 3 - 29.85 - 10 SCT080 OVC090 None
2017-10-15 20:15 70 63 - 77 200° 3 - 29.85 - 10 SCT080 BKN090 None
2017-10-15 19:55 70 63 - 77 180° 7 - 29.85 - 10 SCT085 None
2017-10-15 19:35 70 63 - 77 180° 7 - 29.85 - 10 SCT085 None
2017-10-15 19:15 72 63 76 73 180° 6 - 29.85 - 10 CLR None
2017-10-15 18:55 72 63 76 73 170° 7 - 29.85 - 10 CLR None
2017-10-15 18:35 72 64 76 78 170° 7 - 29.85 - 10 CLR None
2017-10-15 18:15 73 64 77 73 160° 6 - 29.86 - 10 CLR None

Support USWX by starting your Amazon purchase here.